Bw Wren — 9V2927 — position and weather

sailwx.info

Track history (hours):
 
Tides and Currents Weather Stations Pressure Air Temp Water Temp Dewpoint Dewpoint Depression Visibility Wind Speed Wind Dir Waves Ship Positions

Bw Wren

Last reported at 2017-Nov-20 00:26 UTC. Time now 2017-Nov-22 16:44 UTC.
Position N 22°41' E 114°34'.

Length 183 m; draft 8.2 m.

Type: Ship. MMSI: 563889000.

Date/timePositionNaut miles runAvg speedWind from/ knotsBaromVisibWave heightAir tempDewpointWater temp
2017-Nov-20 00:26N 22°41' E 114°34'0 0.0
2017-Nov-19 23:59N 22°41' E 114°34'0 0.0
2017-Nov-19 23:29N 22°41' E 114°34'0 0.0
2017-Nov-19 22:59N 22°41' E 114°34'0 0.0
2017-Nov-19 22:29N 22°41' E 114°34'0 0.0
2017-Nov-19 21:56N 22°41' E 114°34'0 0.0
2017-Nov-19 21:29N 22°41' E 114°34'0 0.0
2017-Nov-19 20:59N 22°41' E 114°34'0 0.0
2017-Nov-19 20:29N 22°41' E 114°34'0 0.0
2017-Nov-19 19:59N 22°41' E 114°34'0 0.0
2017-Nov-19 19:29N 22°41' E 114°34'0 0.0
2017-Nov-19 18:59N 22°41' E 114°34'0 0.0
2017-Nov-19 18:23N 22°41' E 114°34'0 0.0
2017-Nov-19 17:59N 22°41' E 114°34'0 0.0
2017-Nov-19 17:26N 22°41' E 114°34'0 0.0
2017-Nov-19 16:59N 22°41' E 114°34'0 0.0
2017-Nov-19 16:29N 22°41' E 114°34'0 0.0
2017-Nov-19 15:59N 22°41' E 114°34'0 0.0
2017-Nov-19 15:29N 22°41' E 114°34'0 0.0
2017-Nov-19 14:56N 22°41' E 114°34'0 0.0
2017-Nov-19 14:26N 22°41' E 114°34'0 0.0
2017-Nov-19 13:59N 22°41' E 114°34'0 0.0
2017-Nov-19 13:29N 22°41' E 114°34'0 0.0
2017-Nov-19 12:59N 22°41' E 114°34'0 0.0
2017-Nov-19 12:29N 22°41' E 114°34'0 0.0
2017-Nov-19 11:59N 22°41' E 114°34'0 0.0
2017-Nov-19 11:29N 22°41' E 114°34'0 0.0
2017-Nov-19 10:59N 22°41' E 114°34'0 0.0
2017-Nov-19 10:29N 22°41' E 114°34'0 0.0
2017-Nov-19 09:59N 22°41' E 114°34'0 0.0
2017-Nov-19 09:29N 22°41' E 114°34'0 0.0
2017-Nov-19 08:59N 22°41' E 114°34'0 0.0
2017-Nov-19 08:29N 22°41' E 114°34'0 0.0
2017-Nov-19 07:59N 22°41' E 114°34'0 0.0
2017-Nov-19 07:29N 22°41' E 114°34'0 0.0
2017-Nov-19 06:59N 22°41' E 114°34'0 0.0
2017-Nov-19 06:27N 22°41' E 114°34'0 0.0
2017-Nov-19 05:59N 22°41' E 114°34'0 0.0
2017-Nov-19 05:29N 22°41' E 114°34'0 0.0
2017-Nov-19 04:59N 22°41' E 114°34'0 0.0
2017-Nov-19 04:29N 22°41' E 114°34'0 0.0
2017-Nov-19 03:59N 22°41' E 114°34'0 0.0
2017-Nov-19 03:29N 22°41' E 114°34'0 0.0
2017-Nov-19 02:59N 22°41' E 114°34'0 0.0
2017-Nov-19 02:29N 22°41' E 114°34'0 0.9
2017-Nov-19 02:00N 22°41' E 114°34'3 6.2
2017-Nov-19 01:30N 22°39' E 114°37'4 8.2
2017-Nov-19 01:00N 22°36' E 114°40'2 3.8
2017-Nov-19 00:30N 22°34' E 114°41'2 3.3
2017-Nov-19 00:00N 22°33' E 114°42'5 9.1
2017-Nov-18 23:30N 22°28' E 114°43'1 1.5
2017-Nov-18 22:59N 22°28' E 114°43'0 0.0
2017-Nov-18 22:29N 22°28' E 114°43'0 0.0
2017-Nov-18 21:59N 22°28' E 114°43'0 0.0
2017-Nov-18 21:29N 22°28' E 114°43'0 0.0
2017-Nov-18 20:59N 22°28' E 114°43'0 0.0
2017-Nov-18 20:29N 22°28' E 114°43'0 0.0
2017-Nov-18 19:59N 22°28' E 114°43'0 0.1
2017-Nov-18 19:29N 22°28' E 114°43'0 0.0
2017-Nov-18 18:59N 22°28' E 114°43'0 0.0
2017-Nov-18 18:29N 22°28' E 114°43'0 0.0
2017-Nov-18 17:59N 22°28' E 114°43'0 0.0
2017-Nov-18 17:29N 22°28' E 114°43'0 0.0
2017-Nov-18 16:59N 22°28' E 114°43'0 0.0
2017-Nov-18 16:29N 22°28' E 114°43'0 0.0
2017-Nov-18 15:59N 22°28' E 114°43'0 0.0
2017-Nov-18 15:29N 22°28' E 114°43'0 0.0
2017-Nov-18 14:59N 22°28' E 114°43'0 0.0
2017-Nov-18 14:29N 22°28' E 114°43'0 0.0
2017-Nov-18 13:59N 22°28' E 114°43'0 0.0
2017-Nov-18 13:29N 22°28' E 114°43'0 0.1
2017-Nov-18 12:59N 22°28' E 114°43'0 0.0
2017-Nov-18 12:29N 22°28' E 114°43'0 0.1
2017-Nov-18 11:59N 22°28' E 114°43'0 0.1
2017-Nov-18 11:29N 22°28' E 114°43'0 0.1
2017-Nov-18 10:59N 22°28' E 114°43'0 0.0
2017-Nov-18 10:29N 22°28' E 114°43'0 0.2
2017-Nov-18 09:59N 22°28' E 114°43'0 0.1
2017-Nov-18 09:23N 22°27' E 114°43'0 0.0
2017-Nov-18 08:59N 22°28' E 114°43'0 0.0
2017-Nov-18 08:29N 22°28' E 114°43'0 0.2
2017-Nov-18 07:59N 22°28' E 114°43'0 0.0
2017-Nov-18 07:29N 22°28' E 114°43'0 0.1
2017-Nov-18 06:56N 22°28' E 114°43'0 0.1
2017-Nov-18 06:29N 22°28' E 114°43'0 0.1
2017-Nov-18 05:59N 22°28' E 114°43'0 0.0
2017-Nov-18 05:29N 22°28' E 114°43'0 0.0
2017-Nov-18 04:56N 22°28' E 114°43'0 0.0
2017-Nov-18 04:29N 22°28' E 114°43'0 0.0
2017-Nov-18 03:59N 22°28' E 114°43'0 0.0
2017-Nov-18 03:29N 22°28' E 114°43'0 0.1
2017-Nov-18 02:50N 22°28' E 114°43'0 0.1
2017-Nov-18 02:29N 22°28' E 114°43'0 0.0
2017-Nov-18 01:59N 22°28' E 114°43'0 0.1
2017-Nov-18 01:29N 22°28' E 114°43'0 0.0
2017-Nov-18 00:59N 22°28' E 114°43'0 0.1
2017-Nov-18 00:29N 22°28' E 114°43'0 0.1
2017-Nov-17 23:59N 22°28' E 114°43'0 0.0
2017-Nov-17 23:29N 22°28' E 114°43'0 0.1
2017-Nov-17 22:56N 22°28' E 114°43'0 0.1
2017-Nov-17 22:29N 22°28' E 114°43'0 0.0
2017-Nov-17 21:59N 22°28' E 114°43'0 0.2
2017-Nov-17 21:29N 22°28' E 114°43'0 0.1
2017-Nov-17 20:59N 22°28' E 114°43'0 0.1
2017-Nov-17 20:29N 22°28' E 114°43'0 0.0
2017-Nov-17 19:59N 22°28' E 114°43'0 0.0
2017-Nov-17 19:29N 22°28' E 114°43'0 0.1
2017-Nov-17 18:59N 22°28' E 114°43'0 0.1
2017-Nov-17 18:29N 22°28' E 114°43'0 0.2
2017-Nov-17 17:59N 22°28' E 114°43'1 2.4
2017-Nov-17 17:29N 22°27' E 114°44'4 8.4
2017-Nov-17 17:00N 22°24' E 114°47'5 9.7
2017-Nov-17 16:30N 22°19' E 114°49'4 7.0
2017-Nov-17 15:59N 22°16' E 114°50'4 8.4
2017-Nov-17 15:30N 22°12' E 114°52'3 5.5
2017-Nov-17 14:58N 22°09' E 114°52'510.0
2017-Nov-17 14:29N 22°05' E 114°55'18 2.8
2017-Nov-17 07:49N 22°22' E 114°47'411.8
2017-Nov-17 07:30N 22°25' E 114°45'611.5
2017-Nov-17 07:00N 22°31' E 114°43'5 9.4
2017-Nov-17 06:29N 22°35' E 114°41'5 8.2
2017-Nov-17 05:52N 22°38' E 114°37'3 8.4
2017-Nov-17 05:30N 22°41' E 114°35'1 0.0
2017-Nov-15 16:30N 22°41' E 114°34'0 0.0
2017-Nov-15 16:00N 22°41' E 114°34'0 0.0
2017-Nov-15 15:30N 22°41' E 114°34'0 0.0
2017-Nov-15 15:00N 22°41' E 114°34'0 0.0
2017-Nov-15 14:24N 22°41' E 114°34'0 0.0
2017-Nov-15 14:00N 22°41' E 114°34'0 0.0
2017-Nov-15 13:30N 22°41' E 114°34'0 0.0
2017-Nov-15 13:00N 22°41' E 114°34'0 0.0
2017-Nov-15 12:30N 22°41' E 114°34'0 0.0
2017-Nov-15 12:00N 22°41' E 114°34'0 0.0
2017-Nov-15 11:27N 22°41' E 114°34'0 0.0
2017-Nov-15 11:00N 22°41' E 114°34'0 0.0
2017-Nov-15 10:30N 22°41' E 114°34'0 0.0
2017-Nov-15 10:00N 22°41' E 114°34'0 0.0
2017-Nov-15 09:30N 22°41' E 114°34'0 0.0
2017-Nov-15 08:57N 22°41' E 114°34'0 0.0
2017-Nov-15 08:30N 22°41' E 114°34'0 0.0
2017-Nov-15 08:00N 22°41' E 114°34'0 0.0
2017-Nov-15 07:27N 22°41' E 114°34'0 0.0
2017-Nov-15 06:57N 22°41' E 114°34'0 0.0
2017-Nov-15 06:30N 22°41' E 114°34'0 0.0
2017-Nov-15 06:00N 22°41' E 114°34'0 0.0
2017-Nov-15 05:30N 22°41' E 114°34'0 0.0
2017-Nov-15 05:00N 22°41' E 114°34'0 0.0
2017-Nov-15 04:30N 22°41' E 114°34'0 0.0
2017-Nov-15 04:00N 22°41' E 114°34'0 0.0
2017-Nov-15 03:30N 22°41' E 114°34'0 0.0
2017-Nov-15 03:00N 22°41' E 114°34'0 0.0
2017-Nov-15 02:30N 22°41' E 114°34'0 0.0
2017-Nov-15 01:51N 22°41' E 114°34'0 0.0
2017-Nov-15 01:30N 22°41' E 114°34'0 0.0
2017-Nov-15 01:00N 22°41' E 114°34'0 0.0
2017-Nov-15 00:30N 22°41' E 114°34'0 0.0
2017-Nov-15 00:00N 22°41' E 114°34'0 0.0
2017-Nov-14 23:30N 22°41' E 114°34'0 0.0
2017-Nov-14 23:00N 22°41' E 114°34'0 0.0
2017-Nov-14 22:30N 22°41' E 114°34'0 0.0
2017-Nov-14 21:57N 22°41' E 114°34'0 0.0
2017-Nov-14 21:30N 22°41' E 114°34'0 0.0
2017-Nov-14 21:00N 22°41' E 114°34'0 0.0
2017-Nov-14 20:30N 22°41' E 114°34'0 0.0
2017-Nov-14 20:00N 22°41' E 114°34'0 0.0
2017-Nov-14 19:30N 22°41' E 114°34'0 0.0
2017-Nov-14 19:00N 22°41' E 114°34'0 0.0
2017-Nov-14 18:30N 22°41' E 114°34'0 0.0
2017-Nov-14 18:00N 22°41' E 114°34'0 0.0
2017-Nov-14 17:30N 22°41' E 114°34'0 0.0
2017-Nov-14 17:00N 22°41' E 114°34'0 0.0
2017-Nov-14 16:27N 22°41' E 114°34'0 0.0
2017-Nov-14 15:57N 22°41' E 114°34'0 0.0
2017-Nov-14 15:30N 22°41' E 114°34'0 0.0
2017-Nov-14 15:00N 22°41' E 114°34'0 0.0
2017-Nov-14 14:30N 22°41' E 114°34'0 0.0
2017-Nov-14 13:57N 22°41' E 114°34'0 0.0
2017-Nov-14 13:30N 22°41' E 114°34'0 0.0
2017-Nov-14 13:00N 22°41' E 114°34'0 0.0
2017-Nov-14 12:30N 22°41' E 114°34'0 0.0
2017-Nov-14 12:00N 22°41' E 114°34'0 0.0
2017-Nov-14 11:30N 22°41' E 114°34'0 0.0
2017-Nov-14 11:00N 22°41' E 114°34'0 0.0
2017-Nov-14 10:30N 22°41' E 114°34'0 0.0
2017-Nov-14 10:00N 22°41' E 114°34'0 0.0
2017-Nov-14 09:27N 22°41' E 114°34'0 0.0
2017-Nov-14 09:00N 22°41' E 114°34'0 0.0
2017-Nov-14 08:27N 22°41' E 114°34'0 0.0
2017-Nov-14 07:57N 22°41' E 114°34'0 0.0
2017-Nov-14 07:30N 22°41' E 114°34'0 0.0
2017-Nov-14 07:00N 22°41' E 114°34'0 0.0
2017-Nov-14 06:30N 22°41' E 114°34'0 0.0
2017-Nov-14 06:00N 22°41' E 114°34'0 0.0
2017-Nov-14 05:30N 22°41' E 114°34'0 0.0
2017-Nov-14 04:57N 22°41' E 114°34'0 0.0
2017-Nov-14 04:30N 22°41' E 114°34'0 0.0
2017-Nov-14 04:00N 22°41' E 114°34'0 0.0
2017-Nov-14 03:30N 22°41' E 114°34'0 0.0
2017-Nov-14 03:00N 22°41' E 114°34'0 0.0
2017-Nov-14 02:30N 22°41' E 114°34'0 0.0
2017-Nov-14 02:00N 22°41' E 114°34'0 0.0
2017-Nov-14 01:30N 22°41' E 114°34'0 0.0
2017-Nov-14 00:57N 22°41' E 114°34'0 0.0
2017-Nov-14 00:30N 22°41' E 114°34'0 0.1
2017-Nov-14 00:00N 22°41' E 114°34'2 3.5
2017-Nov-13 23:30N 22°40' E 114°35'5 9.0
2017-Nov-13 23:00N 22°37' E 114°39'3 5.3
2017-Nov-13 22:30N 22°35' E 114°41'2 4.8
2017-Nov-13 22:00N 22°33' E 114°42'  
Track history (hours):
 
Tides and Currents Weather Stations Pressure Air Temp Water Temp Dewpoint Dewpoint Depression Visibility Wind Speed Wind Dir Waves Ship Positions

Bw Wren

Last reported at 2017-Nov-20 00:26 UTC. Time now 2017-Nov-22 16:44 UTC.
Position N 22°41' E 114°34'.

Length 183 m; draft 8.2 m.

Type: Ship. MMSI: 563889000.

Date/timePositionNaut miles runAvg speedWind from/ knotsBaromVisibWave heightAir tempDewpointWater temp
2017-Nov-20 00:26N 22°41' E 114°34'0 0.0
2017-Nov-19 23:59N 22°41' E 114°34'0 0.0
2017-Nov-19 23:29N 22°41' E 114°34'0 0.0
2017-Nov-19 22:59N 22°41' E 114°34'0 0.0
2017-Nov-19 22:29N 22°41' E 114°34'0 0.0
2017-Nov-19 21:56N 22°41' E 114°34'0 0.0
2017-Nov-19 21:29N 22°41' E 114°34'0 0.0
2017-Nov-19 20:59N 22°41' E 114°34'0 0.0
2017-Nov-19 20:29N 22°41' E 114°34'0 0.0
2017-Nov-19 19:59N 22°41' E 114°34'0 0.0
2017-Nov-19 19:29N 22°41' E 114°34'0 0.0
2017-Nov-19 18:59N 22°41' E 114°34'0 0.0
2017-Nov-19 18:23N 22°41' E 114°34'0 0.0
2017-Nov-19 17:59N 22°41' E 114°34'0 0.0
2017-Nov-19 17:26N 22°41' E 114°34'0 0.0
2017-Nov-19 16:59N 22°41' E 114°34'0 0.0
2017-Nov-19 16:29N 22°41' E 114°34'0 0.0
2017-Nov-19 15:59N 22°41' E 114°34'0 0.0
2017-Nov-19 15:29N 22°41' E 114°34'0 0.0
2017-Nov-19 14:56N 22°41' E 114°34'0 0.0
2017-Nov-19 14:26N 22°41' E 114°34'0 0.0
2017-Nov-19 13:59N 22°41' E 114°34'0 0.0
2017-Nov-19 13:29N 22°41' E 114°34'0 0.0
2017-Nov-19 12:59N 22°41' E 114°34'0 0.0
2017-Nov-19 12:29N 22°41' E 114°34'0 0.0
2017-Nov-19 11:59N 22°41' E 114°34'0 0.0
2017-Nov-19 11:29N 22°41' E 114°34'0 0.0
2017-Nov-19 10:59N 22°41' E 114°34'0 0.0
2017-Nov-19 10:29N 22°41' E 114°34'0 0.0
2017-Nov-19 09:59N 22°41' E 114°34'0 0.0
2017-Nov-19 09:29N 22°41' E 114°34'0 0.0
2017-Nov-19 08:59N 22°41' E 114°34'0 0.0
2017-Nov-19 08:29N 22°41' E 114°34'0 0.0
2017-Nov-19 07:59N 22°41' E 114°34'0 0.0
2017-Nov-19 07:29N 22°41' E 114°34'0 0.0
2017-Nov-19 06:59N 22°41' E 114°34'0 0.0
2017-Nov-19 06:27N 22°41' E 114°34'0 0.0
2017-Nov-19 05:59N 22°41' E 114°34'0 0.0
2017-Nov-19 05:29N 22°41' E 114°34'0 0.0
2017-Nov-19 04:59N 22°41' E 114°34'0 0.0
2017-Nov-19 04:29N 22°41' E 114°34'0 0.0
2017-Nov-19 03:59N 22°41' E 114°34'0 0.0
2017-Nov-19 03:29N 22°41' E 114°34'0 0.0
2017-Nov-19 02:59N 22°41' E 114°34'0 0.0
2017-Nov-19 02:29N 22°41' E 114°34'0 0.9
2017-Nov-19 02:00N 22°41' E 114°34'3 6.2
2017-Nov-19 01:30N 22°39' E 114°37'4 8.2
2017-Nov-19 01:00N 22°36' E 114°40'2 3.8
2017-Nov-19 00:30N 22°34' E 114°41'2 3.3
2017-Nov-19 00:00N 22°33' E 114°42'5 9.1
2017-Nov-18 23:30N 22°28' E 114°43'1 1.5
2017-Nov-18 22:59N 22°28' E 114°43'0 0.0
2017-Nov-18 22:29N 22°28' E 114°43'0 0.0
2017-Nov-18 21:59N 22°28' E 114°43'0 0.0
2017-Nov-18 21:29N 22°28' E 114°43'0 0.0
2017-Nov-18 20:59N 22°28' E 114°43'0 0.0
2017-Nov-18 20:29N 22°28' E 114°43'0 0.0
2017-Nov-18 19:59N 22°28' E 114°43'0 0.1
2017-Nov-18 19:29N 22°28' E 114°43'0 0.0
2017-Nov-18 18:59N 22°28' E 114°43'0 0.0
2017-Nov-18 18:29N 22°28' E 114°43'0 0.0
2017-Nov-18 17:59N 22°28' E 114°43'0 0.0
2017-Nov-18 17:29N 22°28' E 114°43'0 0.0
2017-Nov-18 16:59N 22°28' E 114°43'0 0.0
2017-Nov-18 16:29N 22°28' E 114°43'0 0.0
2017-Nov-18 15:59N 22°28' E 114°43'0 0.0
2017-Nov-18 15:29N 22°28' E 114°43'0 0.0
2017-Nov-18 14:59N 22°28' E 114°43'0 0.0
2017-Nov-18 14:29N 22°28' E 114°43'0 0.0
2017-Nov-18 13:59N 22°28' E 114°43'0 0.0
2017-Nov-18 13:29N 22°28' E 114°43'0 0.1
2017-Nov-18 12:59N 22°28' E 114°43'0 0.0
2017-Nov-18 12:29N 22°28' E 114°43'0 0.1
2017-Nov-18 11:59N 22°28' E 114°43'0 0.1
2017-Nov-18 11:29N 22°28' E 114°43'0 0.1
2017-Nov-18 10:59N 22°28' E 114°43'0 0.0
2017-Nov-18 10:29N 22°28' E 114°43'0 0.2
2017-Nov-18 09:59N 22°28' E 114°43'0 0.1
2017-Nov-18 09:23N 22°27' E 114°43'0 0.0
2017-Nov-18 08:59N 22°28' E 114°43'0 0.0
2017-Nov-18 08:29N 22°28' E 114°43'0 0.2
2017-Nov-18 07:59N 22°28' E 114°43'0 0.0
2017-Nov-18 07:29N 22°28' E 114°43'0 0.1
2017-Nov-18 06:56N 22°28' E 114°43'0 0.1
2017-Nov-18 06:29N 22°28' E 114°43'0 0.1
2017-Nov-18 05:59N 22°28' E 114°43'0 0.0
2017-Nov-18 05:29N 22°28' E 114°43'0 0.0
2017-Nov-18 04:56N 22°28' E 114°43'0 0.0
2017-Nov-18 04:29N 22°28' E 114°43'0 0.0
2017-Nov-18 03:59N 22°28' E 114°43'0 0.0
2017-Nov-18 03:29N 22°28' E 114°43'0 0.1
2017-Nov-18 02:50N 22°28' E 114°43'0 0.1
2017-Nov-18 02:29N 22°28' E 114°43'0 0.0
2017-Nov-18 01:59N 22°28' E 114°43'0 0.1
2017-Nov-18 01:29N 22°28' E 114°43'0 0.0
2017-Nov-18 00:59N 22°28' E 114°43'0 0.1
2017-Nov-18 00:29N 22°28' E 114°43'0 0.1
2017-Nov-17 23:59N 22°28' E 114°43'0 0.0
2017-Nov-17 23:29N 22°28' E 114°43'0 0.1
2017-Nov-17 22:56N 22°28' E 114°43'0 0.1
2017-Nov-17 22:29N 22°28' E 114°43'0 0.0
2017-Nov-17 21:59N 22°28' E 114°43'0 0.2
2017-Nov-17 21:29N 22°28' E 114°43'0 0.1
2017-Nov-17 20:59N 22°28' E 114°43'0 0.1
2017-Nov-17 20:29N 22°28' E 114°43'0 0.0
2017-Nov-17 19:59N 22°28' E 114°43'0 0.0
2017-Nov-17 19:29N 22°28' E 114°43'0 0.1
2017-Nov-17 18:59N 22°28' E 114°43'0 0.1
2017-Nov-17 18:29N 22°28' E 114°43'0 0.2
2017-Nov-17 17:59N 22°28' E 114°43'1 2.4
2017-Nov-17 17:29N 22°27' E 114°44'4 8.4
2017-Nov-17 17:00N 22°24' E 114°47'5 9.7
2017-Nov-17 16:30N 22°19' E 114°49'4 7.0
2017-Nov-17 15:59N 22°16' E 114°50'4 8.4
2017-Nov-17 15:30N 22°12' E 114°52'3 5.5
2017-Nov-17 14:58N 22°09' E 114°52'510.0
2017-Nov-17 14:29N 22°05' E 114°55'18 2.8
2017-Nov-17 07:49N 22°22' E 114°47'411.8
2017-Nov-17 07:30N 22°25' E 114°45'611.5
2017-Nov-17 07:00N 22°31' E 114°43'5 9.4
2017-Nov-17 06:29N 22°35' E 114°41'5 8.2
2017-Nov-17 05:52N 22°38' E 114°37'3 8.4
2017-Nov-17 05:30N 22°41' E 114°35'1 0.0
2017-Nov-15 16:30N 22°41' E 114°34'0 0.0
2017-Nov-15 16:00N 22°41' E 114°34'0 0.0
2017-Nov-15 15:30N 22°41' E 114°34'0 0.0
2017-Nov-15 15:00N 22°41' E 114°34'0 0.0
2017-Nov-15 14:24N 22°41' E 114°34'0 0.0
2017-Nov-15 14:00N 22°41' E 114°34'0 0.0
2017-Nov-15 13:30N 22°41' E 114°34'0 0.0
2017-Nov-15 13:00N 22°41' E 114°34'0 0.0
2017-Nov-15 12:30N 22°41' E 114°34'0 0.0
2017-Nov-15 12:00N 22°41' E 114°34'0 0.0
2017-Nov-15 11:27N 22°41' E 114°34'0 0.0
2017-Nov-15 11:00N 22°41' E 114°34'0 0.0
2017-Nov-15 10:30N 22°41' E 114°34'0 0.0
2017-Nov-15 10:00N 22°41' E 114°34'0 0.0
2017-Nov-15 09:30N 22°41' E 114°34'0 0.0
2017-Nov-15 08:57N 22°41' E 114°34'0 0.0
2017-Nov-15 08:30N 22°41' E 114°34'0 0.0
2017-Nov-15 08:00N 22°41' E 114°34'0 0.0
2017-Nov-15 07:27N 22°41' E 114°34'0 0.0
2017-Nov-15 06:57N 22°41' E 114°34'0 0.0
2017-Nov-15 06:30N 22°41' E 114°34'0 0.0
2017-Nov-15 06:00N 22°41' E 114°34'0 0.0
2017-Nov-15 05:30N 22°41' E 114°34'0 0.0
2017-Nov-15 05:00N 22°41' E 114°34'0 0.0
2017-Nov-15 04:30N 22°41' E 114°34'0 0.0
2017-Nov-15 04:00N 22°41' E 114°34'0 0.0
2017-Nov-15 03:30N 22°41' E 114°34'0 0.0
2017-Nov-15 03:00N 22°41' E 114°34'0 0.0
2017-Nov-15 02:30N 22°41' E 114°34'0 0.0
2017-Nov-15 01:51N 22°41' E 114°34'0 0.0
2017-Nov-15 01:30N 22°41' E 114°34'0 0.0
2017-Nov-15 01:00N 22°41' E 114°34'0 0.0
2017-Nov-15 00:30N 22°41' E 114°34'0 0.0
2017-Nov-15 00:00N 22°41' E 114°34'0 0.0
2017-Nov-14 23:30N 22°41' E 114°34'0 0.0
2017-Nov-14 23:00N 22°41' E 114°34'0 0.0
2017-Nov-14 22:30N 22°41' E 114°34'0 0.0
2017-Nov-14 21:57N 22°41' E 114°34'0 0.0
2017-Nov-14 21:30N 22°41' E 114°34'0 0.0
2017-Nov-14 21:00N 22°41' E 114°34'0 0.0
2017-Nov-14 20:30N 22°41' E 114°34'0 0.0
2017-Nov-14 20:00N 22°41' E 114°34'0 0.0
2017-Nov-14 19:30N 22°41' E 114°34'0 0.0
2017-Nov-14 19:00N 22°41' E 114°34'0 0.0
2017-Nov-14 18:30N 22°41' E 114°34'0 0.0
2017-Nov-14 18:00N 22°41' E 114°34'0 0.0
2017-Nov-14 17:30N 22°41' E 114°34'0 0.0
2017-Nov-14 17:00N 22°41' E 114°34'0 0.0
2017-Nov-14 16:27N 22°41' E 114°34'0 0.0
2017-Nov-14 15:57N 22°41' E 114°34'0 0.0
2017-Nov-14 15:30N 22°41' E 114°34'0 0.0
2017-Nov-14 15:00N 22°41' E 114°34'0 0.0
2017-Nov-14 14:30N 22°41' E 114°34'0 0.0
2017-Nov-14 13:57N 22°41' E 114°34'0 0.0
2017-Nov-14 13:30N 22°41' E 114°34'0 0.0
2017-Nov-14 13:00N 22°41' E 114°34'0 0.0
2017-Nov-14 12:30N 22°41' E 114°34'0 0.0
2017-Nov-14 12:00N 22°41' E 114°34'0 0.0
2017-Nov-14 11:30N 22°41' E 114°34'0 0.0
2017-Nov-14 11:00N 22°41' E 114°34'0 0.0
2017-Nov-14 10:30N 22°41' E 114°34'0 0.0
2017-Nov-14 10:00N 22°41' E 114°34'0 0.0
2017-Nov-14 09:27N 22°41' E 114°34'0 0.0
2017-Nov-14 09:00N 22°41' E 114°34'0 0.0
2017-Nov-14 08:27N 22°41' E 114°34'0 0.0
2017-Nov-14 07:57N 22°41' E 114°34'0 0.0
2017-Nov-14 07:30N 22°41' E 114°34'0 0.0
2017-Nov-14 07:00N 22°41' E 114°34'0 0.0
2017-Nov-14 06:30N 22°41' E 114°34'0 0.0
2017-Nov-14 06:00N 22°41' E 114°34'0 0.0
2017-Nov-14 05:30N 22°41' E 114°34'0 0.0
2017-Nov-14 04:57N 22°41' E 114°34'0 0.0
2017-Nov-14 04:30N 22°41' E 114°34'0 0.0
2017-Nov-14 04:00N 22°41' E 114°34'0 0.0
2017-Nov-14 03:30N 22°41' E 114°34'0 0.0
2017-Nov-14 03:00N 22°41' E 114°34'0 0.0
2017-Nov-14 02:30N 22°41' E 114°34'0 0.0
2017-Nov-14 02:00N 22°41' E 114°34'0 0.0
2017-Nov-14 01:30N 22°41' E 114°34'0 0.0
2017-Nov-14 00:57N 22°41' E 114°34'0 0.0
2017-Nov-14 00:30N 22°41' E 114°34'0 0.1
2017-Nov-14 00:00N 22°41' E 114°34'2 3.5
2017-Nov-13 23:30N 22°40' E 114°35'5 9.0
2017-Nov-13 23:00N 22°37' E 114°39'3 5.3
2017-Nov-13 22:30N 22°35' E 114°41'2 4.8
2017-Nov-13 22:00N 22°33' E 114°42'  

Dump ship's entire track history